createdAt,value
2022-07-31T00:01:09.111Z,23.96
2022-07-31T00:03:37.506Z,23.92
2022-07-31T00:06:05.930Z,23.94
2022-07-31T00:08:38.517Z,23.98
2022-07-31T00:11:06.794Z,24.03
2022-07-31T00:13:58.029Z,24.03
2022-07-31T00:16:23.430Z,23.99
2022-07-31T00:18:51.831Z,23.94
2022-07-31T00:21:20.154Z,23.94
2022-07-31T00:23:49.921Z,23.98
2022-07-31T00:26:18.212Z,24.00
2022-07-31T00:28:47.810Z,23.96
2022-07-31T00:31:16.087Z,23.94
2022-07-31T00:33:44.429Z,23.98
2022-07-31T00:36:14.148Z,23.95
2022-07-31T00:38:42.456Z,23.90
2022-07-31T00:41:12.233Z,23.90
2022-07-31T00:43:40.649Z,23.92
2022-07-31T00:46:14.322Z,23.92
2022-07-31T00:48:43.426Z,23.90
2022-07-31T00:51:12.419Z,23.96
2022-07-31T00:53:40.694Z,23.91
2022-07-31T00:56:09.098Z,23.95
2022-07-31T00:58:38.752Z,23.94
2022-07-31T01:01:07.226Z,23.96
2022-07-31T01:03:35.743Z,23.95
2022-07-31T01:06:04.123Z,23.88
2022-07-31T01:08:32.872Z,23.92
2022-07-31T01:11:07.044Z,23.97
2022-07-31T01:13:50.241Z,24.00
2022-07-31T01:16:19.555Z,24.01
2022-07-31T01:18:49.314Z,23.91
2022-07-31T01:21:24.671Z,23.90
2022-07-31T01:24:19.805Z,23.84
2022-07-31T01:27:05.574Z,23.82
2022-07-31T01:29:39.954Z,23.81
2022-07-31T01:32:12.077Z,23.81
2022-07-31T01:34:45.240Z,23.85
2022-07-31T01:37:20.791Z,23.84
2022-07-31T01:39:54.041Z,23.80
2022-07-31T01:42:26.956Z,23.77
2022-07-31T01:45:00.831Z,23.65
2022-07-31T01:47:30.711Z,23.65
2022-07-31T01:50:00.421Z,23.69
2022-07-31T01:52:31.695Z,23.73
2022-07-31T01:55:02.006Z,23.76
2022-07-31T01:57:32.753Z,23.77
2022-07-31T02:00:33.636Z,23.81
2022-07-31T02:03:09.260Z,23.79
2022-07-31T02:05:41.866Z,23.80
2022-07-31T02:08:12.689Z,23.77
2022-07-31T02:10:45.716Z,23.76
2022-07-31T02:13:15.287Z,23.76
2022-07-31T02:15:47.150Z,23.73
2022-07-31T02:18:19.714Z,23.73
2022-07-31T02:21:05.434Z,23.75
2022-07-31T02:23:34.660Z,23.73
2022-07-31T02:26:05.003Z,23.73
2022-07-31T02:28:38.262Z,23.70
2022-07-31T02:31:12.761Z,23.68
2022-07-31T02:33:44.532Z,23.67
2022-07-31T02:36:15.046Z,23.67
2022-07-31T02:38:44.509Z,23.64
2022-07-31T02:41:14.358Z,23.64
2022-07-31T02:43:43.818Z,23.56
2022-07-31T02:46:24.777Z,23.54
2022-07-31T02:48:53.928Z,23.52
2022-07-31T02:51:24.680Z,23.50
2022-07-31T02:53:54.680Z,23.46
2022-07-31T02:56:26.487Z,23.44
2022-07-31T02:58:55.778Z,23.43
2022-07-31T03:01:28.772Z,23.46
2022-07-31T03:03:58.028Z,23.42
2022-07-31T03:06:29.311Z,23.42
2022-07-31T03:08:57.700Z,23.45
2022-07-31T03:11:26.887Z,23.42
2022-07-31T03:13:59.063Z,23.43
2022-07-31T03:16:30.623Z,23.38
2022-07-31T03:19:02.371Z,23.37
2022-07-31T03:21:32.104Z,23.37
2022-07-31T03:24:00.690Z,23.38
2022-07-31T03:26:32.133Z,23.39
2022-07-31T03:29:02.251Z,23.36
2022-07-31T03:31:32.093Z,23.37
2022-07-31T03:34:00.416Z,23.39
2022-07-31T03:36:29.333Z,23.39
2022-07-31T03:38:57.820Z,23.37
2022-07-31T03:41:33.964Z,23.36
2022-07-31T03:44:02.869Z,23.35
2022-07-31T03:46:33.832Z,23.35
2022-07-31T03:49:02.496Z,23.39
2022-07-31T03:51:31.006Z,23.38
2022-07-31T03:54:00.018Z,23.41
2022-07-31T03:57:01.135Z,23.44
2022-07-31T03:59:32.426Z,23.44
2022-07-31T04:02:11.358Z,23.46
2022-07-31T04:04:44.610Z,23.45
2022-07-31T04:07:12.973Z,23.45
2022-07-31T04:09:41.602Z,23.46
2022-07-31T04:12:11.723Z,23.47
2022-07-31T04:14:40.128Z,23.44
2022-07-31T04:17:10.399Z,23.45
2022-07-31T04:19:39.523Z,23.45
2022-07-31T04:22:08.752Z,23.44
2022-07-31T04:24:38.003Z,23.41
2022-07-31T04:27:24.982Z,23.39
2022-07-31T04:29:53.680Z,23.45
2022-07-31T04:32:24.101Z,23.47
2022-07-31T04:34:59.555Z,23.52
2022-07-31T04:37:27.951Z,23.52
2022-07-31T04:39:56.504Z,23.55
2022-07-31T04:42:25.502Z,23.53
2022-07-31T04:44:54.796Z,23.54
2022-07-31T04:47:24.576Z,23.55
2022-07-31T04:49:53.608Z,23.54
2022-07-31T04:52:22.617Z,23.56
2022-07-31T04:54:52.085Z,23.61
2022-07-31T04:57:22.180Z,23.58
2022-07-31T04:59:59.093Z,23.54
2022-07-31T05:02:31.989Z,23.56
2022-07-31T05:05:00.386Z,23.56
2022-07-31T05:07:34.747Z,23.56
2022-07-31T05:10:08.339Z,23.57
2022-07-31T05:12:37.609Z,23.55
2022-07-31T05:15:07.775Z,23.59
2022-07-31T05:17:37.569Z,23.67
2022-07-31T05:20:35.199Z,23.66
2022-07-31T05:23:22.193Z,23.69
2022-07-31T05:26:08.109Z,23.68
2022-07-31T05:28:37.189Z,23.75
2022-07-31T05:31:05.949Z,23.79
2022-07-31T05:33:36.412Z,23.89
2022-07-31T05:36:05.752Z,23.98
2022-07-31T05:38:34.393Z,24.13
2022-07-31T05:41:21.016Z,24.17
2022-07-31T05:44:04.548Z,24.16
2022-07-31T05:46:42.556Z,24.24
2022-07-31T05:49:12.844Z,24.32
2022-07-31T05:51:44.510Z,24.34
2022-07-31T05:54:13.422Z,24.39
2022-07-31T05:57:00.269Z,24.41
2022-07-31T05:59:36.410Z,24.45
2022-07-31T06:02:05.447Z,24.46
2022-07-31T06:04:48.406Z,24.49
2022-07-31T06:07:16.948Z,24.59
2022-07-31T06:09:46.180Z,24.60
2022-07-31T06:12:17.599Z,24.71
2022-07-31T06:14:46.055Z,24.76
2022-07-31T06:17:20.964Z,24.90
2022-07-31T06:19:52.889Z,24.97
2022-07-31T06:22:23.522Z,25.04
2022-07-31T06:24:53.257Z,25.16
2022-07-31T06:27:33.537Z,25.23
2022-07-31T06:30:03.137Z,25.25
2022-07-31T06:32:31.964Z,25.34
2022-07-31T06:35:02.595Z,25.43
2022-07-31T06:37:34.304Z,25.48
2022-07-31T06:40:02.817Z,25.66
2022-07-31T06:43:09.892Z,25.83
2022-07-31T06:45:58.472Z,25.95
2022-07-31T06:49:06.810Z,25.99
2022-07-31T06:51:38.532Z,26.05
2022-07-31T06:54:09.027Z,26.20
2022-07-31T06:56:39.388Z,26.27
2022-07-31T06:59:08.649Z,26.43
2022-07-31T07:01:37.102Z,26.56
2022-07-31T07:04:06.425Z,26.66
2022-07-31T07:06:35.269Z,26.79
2022-07-31T07:09:05.309Z,26.85
2022-07-31T07:11:33.970Z,26.95
2022-07-31T07:14:02.561Z,27.11
2022-07-31T07:16:31.321Z,27.29
2022-07-31T07:18:59.887Z,27.43
2022-07-31T07:21:28.287Z,27.49
2022-07-31T07:23:56.654Z,27.57
2022-07-31T07:26:39.447Z,27.55
2022-07-31T07:29:10.728Z,27.56
2022-07-31T07:31:39.287Z,27.64
2022-07-31T07:34:09.401Z,27.58
2022-07-31T07:36:37.939Z,27.57
2022-07-31T07:39:26.527Z,27.65
2022-07-31T07:41:56.565Z,27.63
2022-07-31T07:44:24.936Z,27.64
2022-07-31T07:46:53.653Z,27.58
2022-07-31T07:49:22.868Z,27.55
2022-07-31T07:52:11.290Z,27.59
2022-07-31T07:54:39.818Z,27.70
2022-07-31T07:57:25.190Z,27.80
2022-07-31T08:00:32.215Z,27.86
2022-07-31T08:03:49.098Z,27.99
2022-07-31T08:05:52.901Z,28.04
2022-07-31T08:08:21.487Z,27.96
2022-07-31T08:10:49.931Z,28.03
2022-07-31T08:13:31.252Z,28.26
2022-07-31T08:16:18.795Z,28.34
2022-07-31T08:18:51.984Z,28.40
2022-07-31T08:21:20.530Z,28.44
2022-07-31T08:23:48.991Z,28.44
2022-07-31T08:26:27.475Z,28.57
2022-07-31T08:28:58.500Z,28.60
2022-07-31T08:31:33.476Z,28.82
2022-07-31T08:34:42.013Z,29.00
2022-07-31T08:37:59.208Z,29.02
2022-07-31T08:40:00.705Z,29.04
2022-07-31T08:42:29.095Z,29.04
2022-07-31T08:44:59.449Z,28.97
2022-07-31T08:47:34.463Z,28.99
2022-07-31T08:50:15.303Z,29.12
2022-07-31T08:52:45.929Z,29.02
2022-07-31T08:55:55.106Z,28.91
2022-07-31T08:58:13.428Z,28.87
2022-07-31T09:00:44.285Z,28.91
2022-07-31T09:03:13.062Z,29.00
2022-07-31T09:05:51.459Z,29.03
2022-07-31T09:08:20.167Z,28.99
2022-07-31T09:11:03.441Z,28.98
2022-07-31T09:13:38.313Z,29.08
2022-07-31T09:16:30.866Z,29.12
2022-07-31T09:19:01.971Z,29.09
2022-07-31T09:21:40.315Z,29.23
2022-07-31T09:24:10.335Z,29.33
2022-07-31T09:26:41.010Z,29.42
2022-07-31T09:29:12.648Z,29.58
2022-07-31T09:31:43.361Z,29.62
2022-07-31T09:34:35.011Z,30.01
2022-07-31T09:37:12.519Z,30.09
2022-07-31T09:39:59.401Z,30.33
2022-07-31T09:42:55.033Z,30.49
2022-07-31T09:45:29.130Z,30.39
2022-07-31T09:48:13.779Z,30.46
2022-07-31T09:50:54.539Z,30.39
2022-07-31T09:53:24.207Z,30.23
2022-07-31T09:55:58.901Z,29.96
2022-07-31T09:58:30.632Z,29.81
2022-07-31T10:00:59.363Z,29.68
2022-07-31T10:03:29.383Z,29.59
2022-07-31T10:05:59.091Z,29.44
2022-07-31T10:08:30.388Z,29.36
2022-07-31T10:11:35.710Z,29.08
2022-07-31T10:14:23.248Z,28.83
2022-07-31T10:16:55.767Z,28.72
2022-07-31T10:20:04.344Z,28.42
2022-07-31T10:22:52.861Z,28.28
2022-07-31T10:25:27.447Z,28.18
2022-07-31T10:27:57.381Z,27.97
2022-07-31T10:30:28.433Z,27.79
2022-07-31T10:33:00.241Z,27.67
2022-07-31T10:35:30.501Z,27.68
2022-07-31T10:38:05.123Z,27.70
2022-07-31T10:41:12.334Z,27.71
2022-07-31T10:43:46.940Z,27.69
2022-07-31T10:46:44.737Z,27.44
2022-07-31T10:49:41.600Z,27.30
2022-07-31T10:52:39.389Z,27.19
2022-07-31T10:55:30.535Z,27.06
2022-07-31T10:58:26.951Z,26.93
2022-07-31T11:01:17.578Z,26.82
2022-07-31T11:04:06.168Z,26.79
2022-07-31T11:06:49.154Z,26.68
2022-07-31T11:09:45.426Z,26.65
2022-07-31T11:13:00.790Z,26.67
2022-07-31T11:16:04.898Z,26.58
2022-07-31T11:19:01.012Z,26.58
2022-07-31T11:21:39.284Z,26.51
2022-07-31T11:24:15.921Z,26.49
2022-07-31T11:26:50.547Z,26.45
2022-07-31T11:29:59.965Z,26.55
2022-07-31T11:32:25.491Z,26.66
2022-07-31T11:34:57.782Z,26.71
2022-07-31T11:37:39.480Z,26.57
2022-07-31T11:40:15.283Z,26.48
2022-07-31T11:42:46.371Z,26.39
2022-07-31T11:45:17.307Z,26.37
2022-07-31T11:48:12.687Z,26.49
2022-07-31T11:50:41.474Z,26.46
2022-07-31T11:53:09.801Z,26.47
2022-07-31T11:55:46.643Z,26.34
2022-07-31T11:58:17.394Z,26.21
2022-07-31T12:00:53.309Z,26.17
2022-07-31T12:03:23.399Z,26.18
2022-07-31T12:05:57.892Z,26.21
2022-07-31T12:08:28.572Z,26.20
2022-07-31T12:10:58.294Z,26.11
2022-07-31T12:13:38.528Z,25.98
2022-07-31T12:16:09.548Z,25.90
2022-07-31T12:18:48.377Z,25.90
2022-07-31T12:21:21.234Z,25.96
2022-07-31T12:23:50.720Z,25.96
2022-07-31T12:26:27.852Z,26.02
2022-07-31T12:29:05.735Z,26.02
2022-07-31T12:31:46.811Z,25.96
2022-07-31T12:34:15.038Z,25.92
2022-07-31T12:36:43.141Z,25.91
2022-07-31T12:39:13.762Z,25.93
2022-07-31T12:41:43.893Z,25.92
2022-07-31T12:44:44.442Z,25.91
2022-07-31T12:47:22.780Z,25.94
2022-07-31T12:49:59.944Z,25.94
2022-07-31T12:52:31.461Z,25.96
2022-07-31T12:55:00.250Z,25.97
2022-07-31T12:57:29.929Z,25.95
2022-07-31T12:59:59.713Z,25.92
2022-07-31T13:02:29.237Z,25.91
2022-07-31T13:04:58.947Z,25.91
2022-07-31T13:07:29.075Z,25.99
2022-07-31T13:10:20.494Z,26.04
2022-07-31T13:12:45.213Z,26.02
2022-07-31T13:15:13.633Z,25.97
2022-07-31T13:17:43.940Z,25.90
2022-07-31T13:20:19.217Z,25.84
2022-07-31T13:22:47.387Z,25.76
2022-07-31T13:25:17.980Z,25.66
2022-07-31T13:27:49.373Z,25.59
2022-07-31T13:35:26.860Z,25.32
2022-07-31T13:46:56.552Z,25.03
2022-07-31T13:49:35.992Z,24.94
2022-07-31T13:52:12.853Z,24.92
2022-07-31T13:54:48.646Z,24.92
2022-07-31T13:57:16.711Z,24.92
2022-07-31T13:59:45.123Z,24.80
2022-07-31T14:02:15.752Z,24.66
2022-07-31T14:04:44.405Z,24.62
2022-07-31T14:07:13.103Z,24.57
2022-07-31T14:09:47.019Z,24.46
2022-07-31T14:12:25.446Z,24.42
2022-07-31T14:14:53.538Z,24.42
2022-07-31T14:17:25.388Z,24.39
2022-07-31T14:19:53.507Z,24.48
2022-07-31T14:22:21.687Z,24.41
2022-07-31T14:24:51.525Z,24.40
2022-07-31T14:27:21.040Z,24.42
2022-07-31T14:30:02.319Z,24.46
2022-07-31T14:32:32.508Z,24.41
2022-07-31T14:35:06.001Z,24.34
2022-07-31T14:37:38.547Z,24.27
2022-07-31T14:40:07.740Z,24.23
2022-07-31T14:42:36.335Z,24.23
2022-07-31T14:45:06.188Z,24.33
2022-07-31T14:47:35.993Z,24.32
2022-07-31T14:50:07.431Z,24.38
2022-07-31T14:52:38.179Z,24.32
2022-07-31T14:55:07.284Z,24.35
2022-07-31T14:57:35.535Z,24.40
2022-07-31T15:00:03.763Z,24.35
2022-07-31T15:02:31.826Z,24.39
2022-07-31T15:06:49.262Z,24.43
2022-07-31T15:07:49.715Z,24.47
2022-07-31T15:10:18.107Z,24.54
2022-07-31T15:12:46.138Z,24.60
2022-07-31T15:15:14.214Z,24.66
2022-07-31T15:17:42.398Z,24.66
2022-07-31T15:20:12.772Z,24.68
2022-07-31T15:22:40.891Z,24.65
2022-07-31T15:25:10.191Z,24.73
2022-07-31T15:27:38.229Z,24.66
2022-07-31T15:30:08.158Z,24.64
2022-07-31T15:32:38.229Z,24.66
2022-07-31T15:35:08.454Z,24.63
2022-07-31T15:37:39.489Z,24.65
2022-07-31T15:40:09.926Z,24.73
2022-07-31T15:42:40.571Z,24.83
2022-07-31T15:45:13.181Z,24.97
2022-07-31T15:47:42.393Z,25.15
2022-07-31T15:50:12.443Z,25.34
2022-07-31T15:52:42.678Z,25.49
2022-07-31T15:55:11.595Z,25.58
2022-07-31T15:57:40.219Z,25.75
2022-07-31T16:00:10.587Z,25.89
2022-07-31T16:02:42.586Z,25.94
2022-07-31T16:05:21.623Z,25.93
2022-07-31T16:08:32.747Z,25.89
2022-07-31T16:10:54.870Z,25.83
2022-07-31T16:13:24.953Z,25.79
2022-07-31T16:15:56.946Z,25.79
2022-07-31T16:18:29.390Z,25.89
2022-07-31T16:20:57.743Z,26.05
2022-07-31T16:23:28.098Z,26.18
2022-07-31T16:25:56.666Z,26.27
2022-07-31T16:28:25.192Z,26.33
2022-07-31T16:30:54.938Z,26.34
2022-07-31T16:33:22.938Z,26.32
2022-07-31T16:35:51.138Z,26.30
2022-07-31T16:38:19.198Z,26.26
2022-07-31T16:40:53.103Z,26.28
2022-07-31T16:43:50.289Z,26.35
2022-07-31T16:46:10.563Z,26.38
2022-07-31T16:48:38.753Z,26.41
2022-07-31T16:51:07.351Z,26.40
2022-07-31T16:54:13.590Z,26.35
2022-07-31T16:56:25.810Z,26.36
2022-07-31T16:58:55.554Z,26.41
2022-07-31T17:01:53.928Z,26.51
2022-07-31T17:04:13.786Z,26.60
2022-07-31T17:06:41.992Z,26.55
2022-07-31T17:09:17.480Z,26.56
2022-07-31T17:11:49.929Z,26.53
2022-07-31T17:14:19.101Z,26.49
2022-07-31T17:16:49.429Z,26.46
2022-07-31T17:19:42.038Z,26.47
2022-07-31T17:22:07.583Z,26.50
2022-07-31T17:24:37.252Z,26.53
2022-07-31T17:27:08.922Z,26.51
2022-07-31T17:29:52.091Z,26.48
2022-07-31T17:32:20.179Z,26.39
2022-07-31T17:34:49.580Z,26.28
2022-07-31T17:37:18.206Z,26.23
2022-07-31T17:39:46.740Z,26.21
2022-07-31T17:42:18.047Z,26.16
2022-07-31T17:44:54.633Z,26.09
2022-07-31T17:47:26.004Z,26.10
2022-07-31T17:49:54.626Z,26.03
2022-07-31T17:52:22.799Z,26.02
2022-07-31T17:54:52.288Z,25.99
2022-07-31T17:57:22.876Z,25.96
2022-07-31T17:59:51.835Z,25.94
2022-07-31T18:02:19.924Z,25.86
2022-07-31T18:08:06.045Z,25.77
2022-07-31T18:10:53.406Z,25.75
2022-07-31T18:13:27.750Z,25.71
2022-07-31T18:15:56.091Z,25.67
2022-07-31T18:18:24.772Z,25.58
2022-07-31T18:20:53.192Z,25.56
2022-07-31T18:23:23.169Z,25.57
2022-07-31T18:25:52.632Z,25.54
2022-07-31T18:28:20.947Z,25.51
2022-07-31T18:30:51.002Z,25.50
2022-07-31T18:33:19.486Z,25.50
2022-07-31T18:35:47.978Z,25.50
2022-07-31T18:38:17.148Z,25.45
2022-07-31T18:40:45.846Z,25.38
2022-07-31T18:43:14.554Z,25.32
2022-07-31T18:45:42.855Z,25.30
2022-07-31T18:48:13.171Z,25.25
2022-07-31T18:50:59.046Z,25.20
2022-07-31T18:53:30.021Z,25.18
2022-07-31T18:55:58.334Z,25.16
2022-07-31T18:58:26.728Z,25.12
2022-07-31T19:00:55.597Z,25.10
2022-07-31T19:03:27.523Z,25.09
2022-07-31T19:05:55.800Z,25.05
2022-07-31T19:08:24.212Z,25.01
2022-07-31T19:10:53.654Z,24.98
2022-07-31T19:13:22.793Z,24.95
2022-07-31T19:15:53.235Z,24.94
2022-07-31T19:18:26.371Z,24.90
2022-07-31T19:21:21.212Z,24.85
2022-07-31T19:23:48.787Z,24.76
2022-07-31T19:26:17.615Z,24.73
2022-07-31T19:28:47.273Z,24.74
2022-07-31T19:31:16.169Z,24.74
2022-07-31T19:33:45.084Z,24.76
2022-07-31T19:36:16.224Z,24.78
2022-07-31T19:38:45.274Z,24.75
2022-07-31T19:41:17.453Z,24.72
2022-07-31T19:43:46.071Z,24.72
2022-07-31T19:46:14.547Z,24.73
2022-07-31T19:48:44.342Z,24.76
2022-07-31T19:51:13.561Z,24.79
2022-07-31T19:53:44.576Z,24.85
2022-07-31T19:56:20.513Z,24.82
2022-07-31T19:58:50.526Z,24.83
2022-07-31T20:01:21.792Z,24.79
2022-07-31T20:03:50.993Z,24.80
2022-07-31T20:06:20.193Z,24.77
2022-07-31T20:08:50.341Z,24.73
2022-07-31T20:11:19.019Z,24.70
2022-07-31T20:13:47.356Z,24.69
2022-07-31T20:16:16.256Z,24.65
2022-07-31T20:18:45.693Z,24.62
2022-07-31T20:21:14.857Z,24.62
2022-07-31T20:23:44.394Z,24.61
2022-07-31T20:26:19.932Z,24.63
2022-07-31T20:28:48.351Z,24.60
2022-07-31T20:31:21.561Z,24.59
2022-07-31T20:33:57.384Z,24.60
2022-07-31T20:36:27.009Z,24.60
2022-07-31T20:38:56.637Z,24.59
2022-07-31T20:41:27.470Z,24.60
2022-07-31T20:43:56.247Z,24.63
2022-07-31T20:46:24.528Z,24.70
2022-07-31T20:48:52.933Z,24.68
2022-07-31T20:51:23.316Z,24.68
2022-07-31T20:53:52.199Z,24.62
2022-07-31T20:56:21.288Z,24.63
2022-07-31T20:58:52.110Z,24.68
2022-07-31T21:01:21.217Z,24.72
2022-07-31T21:03:50.535Z,24.69
2022-07-31T21:06:19.441Z,24.73
2022-07-31T21:08:47.960Z,24.76
2022-07-31T21:11:17.241Z,24.76
2022-07-31T21:13:45.917Z,24.79
2022-07-31T21:16:15.957Z,24.84
2022-07-31T21:18:44.677Z,24.86
2022-07-31T21:21:13.455Z,24.84
2022-07-31T21:23:41.742Z,24.79
2022-07-31T21:26:11.518Z,24.76
2022-07-31T21:28:40.550Z,24.75
2022-07-31T21:31:09.619Z,24.75
2022-07-31T21:33:40.188Z,24.73
2022-07-31T21:36:09.729Z,24.68
2022-07-31T21:38:40.329Z,24.58
2022-07-31T21:41:09.577Z,24.54
2022-07-31T21:43:58.136Z,24.48
2022-07-31T21:46:28.221Z,24.44
2022-07-31T21:48:58.719Z,24.42
2022-07-31T21:51:27.644Z,24.41
2022-07-31T21:53:55.946Z,24.36
2022-07-31T21:56:24.670Z,24.35
2022-07-31T21:58:53.651Z,24.32
2022-07-31T22:01:22.191Z,24.34
2022-07-31T22:03:50.931Z,24.33
2022-07-31T22:06:38.130Z,24.34
2022-07-31T22:09:06.459Z,24.35
2022-07-31T22:11:35.864Z,24.35
2022-07-31T22:14:04.446Z,24.38
2022-07-31T22:16:32.816Z,24.38
2022-07-31T22:19:01.589Z,24.38
2022-07-31T22:21:32.206Z,24.34
2022-07-31T22:24:00.977Z,24.35
2022-07-31T22:26:29.947Z,24.35
2022-07-31T22:28:59.608Z,24.33
2022-07-31T22:31:28.481Z,24.33
2022-07-31T22:33:57.661Z,24.32
2022-07-31T22:36:27.025Z,24.28
2022-07-31T22:38:57.567Z,24.28
2022-07-31T22:41:26.187Z,24.26
2022-07-31T22:44:12.958Z,24.29
2022-07-31T22:46:43.403Z,24.28
2022-07-31T22:49:12.699Z,24.31
2022-07-31T22:51:46.131Z,24.31
2022-07-31T22:54:16.368Z,24.30
2022-07-31T22:56:45.816Z,24.28
2022-07-31T22:59:14.194Z,24.27
2022-07-31T23:01:42.574Z,24.27
2022-07-31T23:04:11.309Z,24.28
2022-07-31T23:06:39.987Z,24.29
2022-07-31T23:09:08.290Z,24.29
2022-07-31T23:11:38.923Z,24.32
2022-07-31T23:14:07.412Z,24.28
2022-07-31T23:16:35.732Z,24.28
2022-07-31T23:19:04.301Z,24.30
2022-07-31T23:21:33.746Z,24.31
2022-07-31T23:24:02.180Z,24.28
2022-07-31T23:26:30.519Z,24.27
2022-07-31T23:29:00.273Z,24.26
2022-07-31T23:31:28.567Z,24.20
2022-07-31T23:33:57.308Z,24.17
2022-07-31T23:36:25.768Z,24.14
2022-07-31T23:38:54.315Z,24.14
2022-07-31T23:41:36.494Z,24.14
2022-07-31T23:44:10.664Z,24.15
2022-07-31T23:46:40.357Z,24.14
2022-07-31T23:49:09.719Z,24.14
2022-07-31T23:51:38.606Z,24.14
2022-07-31T23:54:08.044Z,24.21
2022-07-31T23:56:36.560Z,24.18
2022-07-31T23:59:06.259Z,24.13
